sensor_id;sensor_type;location;lat;lon;timestamp;temperature;humidity
71837;DHT22;59686;51.716;7.016;2024-03-08T00:01:56;9.80;94.40
71837;DHT22;59686;51.716;7.016;2024-03-08T00:04:22;9.70;94.40
71837;DHT22;59686;51.716;7.016;2024-03-08T00:06:47;9.80;94.30
71837;DHT22;59686;51.716;7.016;2024-03-08T00:09:13;9.80;94.40
71837;DHT22;59686;51.716;7.016;2024-03-08T00:11:39;9.70;94.30
71837;DHT22;59686;51.716;7.016;2024-03-08T00:14:05;9.80;94.20
71837;DHT22;59686;51.716;7.016;2024-03-08T00:16:32;9.70;94.50
71837;DHT22;59686;51.716;7.016;2024-03-08T00:18:59;9.70;94.40
71837;DHT22;59686;51.716;7.016;2024-03-08T00:21:24;9.70;94.20
71837;DHT22;59686;51.716;7.016;2024-03-08T00:23:52;9.70;94.30
71837;DHT22;59686;51.716;7.016;2024-03-08T00:26:19;9.70;94.20
71837;DHT22;59686;51.716;7.016;2024-03-08T00:28:45;9.70;94.30
71837;DHT22;59686;51.716;7.016;2024-03-08T00:31:11;9.70;94.30
71837;DHT22;59686;51.716;7.016;2024-03-08T00:33:36;9.60;94.20
71837;DHT22;59686;51.716;7.016;2024-03-08T00:36:02;9.60;94.20
71837;DHT22;59686;51.716;7.016;2024-03-08T00:38:28;9.60;94.30
71837;DHT22;59686;51.716;7.016;2024-03-08T00:40:53;9.70;94.30
71837;DHT22;59686;51.716;7.016;2024-03-08T00:43:19;9.60;94.20
71837;DHT22;59686;51.716;7.016;2024-03-08T00:45:45;9.60;94.20
71837;DHT22;59686;51.716;7.016;2024-03-08T00:48:10;9.60;94.10
71837;DHT22;59686;51.716;7.016;2024-03-08T00:50:36;9.60;94.10
71837;DHT22;59686;51.716;7.016;2024-03-08T00:53:02;9.60;94.00
71837;DHT22;59686;51.716;7.016;2024-03-08T00:55:28;9.60;94.10
71837;DHT22;59686;51.716;7.016;2024-03-08T00:57:55;9.60;94.00
71837;DHT22;59686;51.716;7.016;2024-03-08T01:00:20;9.60;94.10
71837;DHT22;59686;51.716;7.016;2024-03-08T01:02:47;9.50;94.10
71837;DHT22;59686;51.716;7.016;2024-03-08T01:05:13;9.60;94.10
71837;DHT22;59686;51.716;7.016;2024-03-08T01:07:38;9.60;94.00
71837;DHT22;59686;51.716;7.016;2024-03-08T01:10:05;9.50;94.00
71837;DHT22;59686;51.716;7.016;2024-03-08T01:12:37;9.50;93.90
71837;DHT22;59686;51.716;7.016;2024-03-08T01:15:03;9.50;94.00
71837;DHT22;59686;51.716;7.016;2024-03-08T01:17:29;9.50;93.80
71837;DHT22;59686;51.716;7.016;2024-03-08T01:19:55;9.50;93.90
71837;DHT22;59686;51.716;7.016;2024-03-08T01:22:20;9.50;93.90
71837;DHT22;59686;51.716;7.016;2024-03-08T01:24:46;9.50;94.00
71837;DHT22;59686;51.716;7.016;2024-03-08T01:27:12;9.50;94.00
71837;DHT22;59686;51.716;7.016;2024-03-08T01:29:37;9.40;94.10
71837;DHT22;59686;51.716;7.016;2024-03-08T01:32:03;9.50;94.00
71837;DHT22;59686;51.716;7.016;2024-03-08T01:34:29;9.50;94.00
71837;DHT22;59686;51.716;7.016;2024-03-08T01:36:55;9.50;94.00
71837;DHT22;59686;51.716;7.016;2024-03-08T01:39:23;9.60;93.90
71837;DHT22;59686;51.716;7.016;2024-03-08T01:41:49;9.50;93.90
71837;DHT22;59686;51.716;7.016;2024-03-08T01:44:15;9.40;93.80
71837;DHT22;59686;51.716;7.016;2024-03-08T01:46:46;9.40;93.90
71837;DHT22;59686;51.716;7.016;2024-03-08T01:49:14;9.40;93.90
71837;DHT22;59686;51.716;7.016;2024-03-08T01:51:41;9.40;93.90
71837;DHT22;59686;51.716;7.016;2024-03-08T01:54:08;9.30;93.90
71837;DHT22;59686;51.716;7.016;2024-03-08T01:56:37;9.40;93.90
71837;DHT22;59686;51.716;7.016;2024-03-08T01:59:03;9.50;94.00
71837;DHT22;59686;51.716;7.016;2024-03-08T02:01:29;9.40;93.90
71837;DHT22;59686;51.716;7.016;2024-03-08T02:03:56;9.30;94.30
71837;DHT22;59686;51.716;7.016;2024-03-08T02:06:21;9.30;93.90
71837;DHT22;59686;51.716;7.016;2024-03-08T02:08:50;9.40;94.10
71837;DHT22;59686;51.716;7.016;2024-03-08T02:11:16;9.40;94.00
71837;DHT22;59686;51.716;7.016;2024-03-08T02:13:42;9.30;94.00
71837;DHT22;59686;51.716;7.016;2024-03-08T02:16:08;9.30;93.90
71837;DHT22;59686;51.716;7.016;2024-03-08T02:18:34;9.30;93.90
71837;DHT22;59686;51.716;7.016;2024-03-08T02:21:01;9.30;93.90
71837;DHT22;59686;51.716;7.016;2024-03-08T02:23:28;9.30;94.00
71837;DHT22;59686;51.716;7.016;2024-03-08T02:25:55;9.30;94.00
71837;DHT22;59686;51.716;7.016;2024-03-08T02:28:22;9.30;93.90
71837;DHT22;59686;51.716;7.016;2024-03-08T02:30:48;9.30;94.00
71837;DHT22;59686;51.716;7.016;2024-03-08T02:33:15;9.30;93.90
71837;DHT22;59686;51.716;7.016;2024-03-08T02:35:45;9.20;93.90
71837;DHT22;59686;51.716;7.016;2024-03-08T02:38:15;9.20;94.00
71837;DHT22;59686;51.716;7.016;2024-03-08T02:40:45;9.20;94.00
71837;DHT22;59686;51.716;7.016;2024-03-08T02:43:12;9.20;94.10
71837;DHT22;59686;51.716;7.016;2024-03-08T02:45:38;9.20;94.20
71837;DHT22;59686;51.716;7.016;2024-03-08T02:48:05;9.20;94.10
71837;DHT22;59686;51.716;7.016;2024-03-08T02:50:34;9.20;94.10
71837;DHT22;59686;51.716;7.016;2024-03-08T02:53:03;9.20;94.10
71837;DHT22;59686;51.716;7.016;2024-03-08T02:55:29;9.20;94.20
71837;DHT22;59686;51.716;7.016;2024-03-08T02:57:55;9.10;94.00
71837;DHT22;59686;51.716;7.016;2024-03-08T03:00:22;9.20;94.10
71837;DHT22;59686;51.716;7.016;2024-03-08T03:02:48;9.20;94.20
71837;DHT22;59686;51.716;7.016;2024-03-08T03:05:17;9.20;94.20
71837;DHT22;59686;51.716;7.016;2024-03-08T03:07:43;9.20;94.30
71837;DHT22;59686;51.716;7.016;2024-03-08T03:10:09;9.20;94.30
71837;DHT22;59686;51.716;7.016;2024-03-08T03:12:34;9.20;94.40
71837;DHT22;59686;51.716;7.016;2024-03-08T03:15:00;9.10;94.30
71837;DHT22;59686;51.716;7.016;2024-03-08T03:17:26;9.20;94.30
71837;DHT22;59686;51.716;7.016;2024-03-08T03:19:52;9.20;94.30
71837;DHT22;59686;51.716;7.016;2024-03-08T03:22:18;9.10;94.40
71837;DHT22;59686;51.716;7.016;2024-03-08T03:24:45;9.10;94.10
71837;DHT22;59686;51.716;7.016;2024-03-08T03:27:12;9.10;94.10
71837;DHT22;59686;51.716;7.016;2024-03-08T03:29:39;9.20;94.10
71837;DHT22;59686;51.716;7.016;2024-03-08T03:32:05;9.10;94.00
71837;DHT22;59686;51.716;7.016;2024-03-08T03:34:33;9.10;94.20
71837;DHT22;59686;51.716;7.016;2024-03-08T03:37:02;9.10;94.00
71837;DHT22;59686;51.716;7.016;2024-03-08T03:39:28;9.10;94.10
71837;DHT22;59686;51.716;7.016;2024-03-08T03:41:58;9.10;94.10
71837;DHT22;59686;51.716;7.016;2024-03-08T03:44:24;9.10;94.10
71837;DHT22;59686;51.716;7.016;2024-03-08T03:46:49;9.00;94.10
71837;DHT22;59686;51.716;7.016;2024-03-08T03:49:18;9.10;94.20
71837;DHT22;59686;51.716;7.016;2024-03-08T03:51:43;9.00;94.10
71837;DHT22;59686;51.716;7.016;2024-03-08T03:54:10;9.00;94.20
71837;DHT22;59686;51.716;7.016;2024-03-08T03:56:36;9.10;94.20
71837;DHT22;59686;51.716;7.016;2024-03-08T03:59:01;9.00;94.10
71837;DHT22;59686;51.716;7.016;2024-03-08T04:01:27;8.90;94.10
71837;DHT22;59686;51.716;7.016;2024-03-08T04:03:53;9.00;94.10
71837;DHT22;59686;51.716;7.016;2024-03-08T04:06:18;8.90;94.10
71837;DHT22;59686;51.716;7.016;2024-03-08T04:08:44;9.00;94.10
71837;DHT22;59686;51.716;7.016;2024-03-08T04:11:10;9.00;94.00
71837;DHT22;59686;51.716;7.016;2024-03-08T04:13:36;9.10;94.10
71837;DHT22;59686;51.716;7.016;2024-03-08T04:16:02;9.00;94.10
71837;DHT22;59686;51.716;7.016;2024-03-08T04:18:28;9.00;94.10
71837;DHT22;59686;51.716;7.016;2024-03-08T04:20:53;8.90;94.10
71837;DHT22;59686;51.716;7.016;2024-03-08T04:23:19;8.90;94.00
71837;DHT22;59686;51.716;7.016;2024-03-08T04:25:45;8.90;94.00
71837;DHT22;59686;51.716;7.016;2024-03-08T04:28:11;8.90;94.20
71837;DHT22;59686;51.716;7.016;2024-03-08T04:30:39;8.90;94.10
71837;DHT22;59686;51.716;7.016;2024-03-08T04:33:06;8.90;94.20
71837;DHT22;59686;51.716;7.016;2024-03-08T04:35:35;8.80;94.20
71837;DHT22;59686;51.716;7.016;2024-03-08T04:38:00;8.90;94.30
71837;DHT22;59686;51.716;7.016;2024-03-08T04:40:26;8.90;94.20
71837;DHT22;59686;51.716;7.016;2024-03-08T04:42:52;8.90;94.40
71837;DHT22;59686;51.716;7.016;2024-03-08T04:45:18;8.90;94.00
71837;DHT22;59686;51.716;7.016;2024-03-08T04:47:44;8.90;94.10
71837;DHT22;59686;51.716;7.016;2024-03-08T04:50:09;8.90;94.10
71837;DHT22;59686;51.716;7.016;2024-03-08T04:52:35;8.90;94.00
71837;DHT22;59686;51.716;7.016;2024-03-08T04:55:04;8.80;94.00
71837;DHT22;59686;51.716;7.016;2024-03-08T04:57:30;8.80;94.00
71837;DHT22;59686;51.716;7.016;2024-03-08T04:59:57;8.90;94.10
71837;DHT22;59686;51.716;7.016;2024-03-08T05:02:24;8.80;94.00
71837;DHT22;59686;51.716;7.016;2024-03-08T05:04:50;8.80;94.00
71837;DHT22;59686;51.716;7.016;2024-03-08T05:07:16;8.80;94.00
71837;DHT22;59686;51.716;7.016;2024-03-08T05:09:42;8.80;93.90
71837;DHT22;59686;51.716;7.016;2024-03-08T05:12:07;8.80;93.90
71837;DHT22;59686;51.716;7.016;2024-03-08T05:14:33;8.80;94.00
71837;DHT22;59686;51.716;7.016;2024-03-08T05:17:00;8.80;94.00
71837;DHT22;59686;51.716;7.016;2024-03-08T05:19:26;8.80;93.90
71837;DHT22;59686;51.716;7.016;2024-03-08T05:21:52;8.70;94.00
71837;DHT22;59686;51.716;7.016;2024-03-08T05:24:18;8.70;94.10
71837;DHT22;59686;51.716;7.016;2024-03-08T05:26:44;8.70;94.00
71837;DHT22;59686;51.716;7.016;2024-03-08T05:29:10;8.70;94.10
71837;DHT22;59686;51.716;7.016;2024-03-08T05:31:50;8.70;94.00
71837;DHT22;59686;51.716;7.016;2024-03-08T05:34:18;8.70;94.10
71837;DHT22;59686;51.716;7.016;2024-03-08T05:36:48;8.70;94.20
71837;DHT22;59686;51.716;7.016;2024-03-08T05:39:17;8.80;94.60
71837;DHT22;59686;51.716;7.016;2024-03-08T05:41:44;8.80;94.60
71837;DHT22;59686;51.716;7.016;2024-03-08T05:44:10;8.70;94.50
71837;DHT22;59686;51.716;7.016;2024-03-08T05:46:36;8.70;94.60
71837;DHT22;59686;51.716;7.016;2024-03-08T05:49:06;8.70;94.50
71837;DHT22;59686;51.716;7.016;2024-03-08T05:51:36;8.70;94.60
71837;DHT22;59686;51.716;7.016;2024-03-08T05:54:02;8.60;94.40
71837;DHT22;59686;51.716;7.016;2024-03-08T05:56:29;8.60;94.40
71837;DHT22;59686;51.716;7.016;2024-03-08T05:58:55;8.70;94.40
71837;DHT22;59686;51.716;7.016;2024-03-08T06:01:20;8.60;94.40
71837;DHT22;59686;51.716;7.016;2024-03-08T06:03:47;8.60;94.40
71837;DHT22;59686;51.716;7.016;2024-03-08T06:06:14;8.60;94.40
71837;DHT22;59686;51.716;7.016;2024-03-08T06:08:41;8.70;94.50
71837;DHT22;59686;51.716;7.016;2024-03-08T06:11:09;8.60;94.40
71837;DHT22;59686;51.716;7.016;2024-03-08T06:13:35;8.60;94.50
71837;DHT22;59686;51.716;7.016;2024-03-08T06:16:01;8.60;94.40
71837;DHT22;59686;51.716;7.016;2024-03-08T06:18:30;8.60;94.40
71837;DHT22;59686;51.716;7.016;2024-03-08T06:20:56;8.60;94.50
71837;DHT22;59686;51.716;7.016;2024-03-08T06:23:22;8.60;94.40
71837;DHT22;59686;51.716;7.016;2024-03-08T06:25:48;8.50;94.30
71837;DHT22;59686;51.716;7.016;2024-03-08T06:28:13;8.50;94.10
71837;DHT22;59686;51.716;7.016;2024-03-08T06:30:40;8.60;94.40
71837;DHT22;59686;51.716;7.016;2024-03-08T06:33:05;8.60;94.30
71837;DHT22;59686;51.716;7.016;2024-03-08T06:35:32;8.50;94.10
71837;DHT22;59686;51.716;7.016;2024-03-08T06:37:58;8.60;94.20
71837;DHT22;59686;51.716;7.016;2024-03-08T06:40:24;8.60;94.30
71837;DHT22;59686;51.716;7.016;2024-03-08T06:42:50;8.50;94.10
71837;DHT22;59686;51.716;7.016;2024-03-08T06:45:17;8.50;94.10
71837;DHT22;59686;51.716;7.016;2024-03-08T06:47:46;8.50;94.20
71837;DHT22;59686;51.716;7.016;2024-03-08T06:50:12;8.50;94.10
71837;DHT22;59686;51.716;7.016;2024-03-08T06:52:39;8.50;94.10
71837;DHT22;59686;51.716;7.016;2024-03-08T06:55:05;8.50;94.20
71837;DHT22;59686;51.716;7.016;2024-03-08T06:57:31;8.50;94.10
71837;DHT22;59686;51.716;7.016;2024-03-08T06:59:57;8.50;94.00
71837;DHT22;59686;51.716;7.016;2024-03-08T07:02:23;8.50;94.20
71837;DHT22;59686;51.716;7.016;2024-03-08T07:04:52;8.50;94.10
71837;DHT22;59686;51.716;7.016;2024-03-08T07:07:18;8.50;94.10
71837;DHT22;59686;51.716;7.016;2024-03-08T07:09:46;8.50;94.00
71837;DHT22;59686;51.716;7.016;2024-03-08T07:12:12;8.50;93.80
71837;DHT22;59686;51.716;7.016;2024-03-08T07:14:39;8.50;93.90
71837;DHT22;59686;51.716;7.016;2024-03-08T07:17:07;8.50;94.00
71837;DHT22;59686;51.716;7.016;2024-03-08T07:19:34;8.40;94.00
71837;DHT22;59686;51.716;7.016;2024-03-08T07:22:01;8.50;93.90
71837;DHT22;59686;51.716;7.016;2024-03-08T07:24:29;8.40;93.80
71837;DHT22;59686;51.716;7.016;2024-03-08T07:27:13;8.40;93.90
71837;DHT22;59686;51.716;7.016;2024-03-08T07:29:38;8.50;93.90
71837;DHT22;59686;51.716;7.016;2024-03-08T07:32:04;8.40;93.90
71837;DHT22;59686;51.716;7.016;2024-03-08T07:34:50;8.50;93.90
71837;DHT22;59686;51.716;7.016;2024-03-08T07:37:17;8.40;93.70
71837;DHT22;59686;51.716;7.016;2024-03-08T07:39:43;8.40;93.90
71837;DHT22;59686;51.716;7.016;2024-03-08T07:42:09;8.50;93.80
71837;DHT22;59686;51.716;7.016;2024-03-08T07:44:36;8.40;93.60
71837;DHT22;59686;51.716;7.016;2024-03-08T07:47:02;8.50;93.60
71837;DHT22;59686;51.716;7.016;2024-03-08T07:49:29;8.40;93.60
71837;DHT22;59686;51.716;7.016;2024-03-08T07:51:56;8.40;93.60
71837;DHT22;59686;51.716;7.016;2024-03-08T07:54:23;8.40;93.70
71837;DHT22;59686;51.716;7.016;2024-03-08T07:56:48;8.50;93.80
71837;DHT22;59686;51.716;7.016;2024-03-08T07:59:14;8.30;93.60
71837;DHT22;59686;51.716;7.016;2024-03-08T08:01:40;8.40;93.50
71837;DHT22;59686;51.716;7.016;2024-03-08T08:04:06;8.40;93.50
71837;DHT22;59686;51.716;7.016;2024-03-08T08:06:32;8.40;93.60
71837;DHT22;59686;51.716;7.016;2024-03-08T08:08:59;8.40;93.40
71837;DHT22;59686;51.716;7.016;2024-03-08T08:11:27;8.40;93.40
71837;DHT22;59686;51.716;7.016;2024-03-08T08:13:54;8.40;93.30
71837;DHT22;59686;51.716;7.016;2024-03-08T08:16:22;8.40;93.40
71837;DHT22;59686;51.716;7.016;2024-03-08T08:18:48;8.40;93.50
71837;DHT22;59686;51.716;7.016;2024-03-08T08:21:15;8.40;93.30
71837;DHT22;59686;51.716;7.016;2024-03-08T08:23:41;8.40;93.40
71837;DHT22;59686;51.716;7.016;2024-03-08T08:26:06;8.40;93.40
71837;DHT22;59686;51.716;7.016;2024-03-08T08:28:33;8.40;93.40
71837;DHT22;59686;51.716;7.016;2024-03-08T08:30:59;8.40;93.40
71837;DHT22;59686;51.716;7.016;2024-03-08T08:33:25;8.40;93.40
71837;DHT22;59686;51.716;7.016;2024-03-08T08:35:51;8.40;93.40
71837;DHT22;59686;51.716;7.016;2024-03-08T08:38:19;8.40;93.40
71837;DHT22;59686;51.716;7.016;2024-03-08T08:40:45;8.40;93.40
71837;DHT22;59686;51.716;7.016;2024-03-08T08:43:13;8.40;93.50
71837;DHT22;59686;51.716;7.016;2024-03-08T08:45:39;8.40;93.90
71837;DHT22;59686;51.716;7.016;2024-03-08T08:48:06;8.40;93.50
71837;DHT22;59686;51.716;7.016;2024-03-08T08:50:32;8.40;93.50
71837;DHT22;59686;51.716;7.016;2024-03-08T08:52:57;8.40;93.60
71837;DHT22;59686;51.716;7.016;2024-03-08T08:55:24;8.40;93.50
71837;DHT22;59686;51.716;7.016;2024-03-08T08:57:52;8.40;93.70
71837;DHT22;59686;51.716;7.016;2024-03-08T09:00:21;8.40;93.60
71837;DHT22;59686;51.716;7.016;2024-03-08T09:02:49;8.40;93.60
71837;DHT22;59686;51.716;7.016;2024-03-08T09:05:16;8.40;93.60
71837;DHT22;59686;51.716;7.016;2024-03-08T09:07:43;8.40;93.60
71837;DHT22;59686;51.716;7.016;2024-03-08T09:10:10;8.40;93.50
71837;DHT22;59686;51.716;7.016;2024-03-08T09:12:38;8.50;93.70
71837;DHT22;59686;51.716;7.016;2024-03-08T09:15:05;8.50;93.60
71837;DHT22;59686;51.716;7.016;2024-03-08T09:17:34;8.50;93.60
71837;DHT22;59686;51.716;7.016;2024-03-08T09:19:59;8.50;94.10
71837;DHT22;59686;51.716;7.016;2024-03-08T09:22:26;8.50;93.70
71837;DHT22;59686;51.716;7.016;2024-03-08T09:24:51;8.50;93.80
71837;DHT22;59686;51.716;7.016;2024-03-08T09:27:17;8.50;93.80
71837;DHT22;59686;51.716;7.016;2024-03-08T09:29:43;8.40;93.90
71837;DHT22;59686;51.716;7.016;2024-03-08T09:32:10;8.50;93.80
71837;DHT22;59686;51.716;7.016;2024-03-08T09:34:37;8.50;93.70
71837;DHT22;59686;51.716;7.016;2024-03-08T09:37:03;8.50;93.90
71837;DHT22;59686;51.716;7.016;2024-03-08T09:39:30;8.50;94.00
71837;DHT22;59686;51.716;7.016;2024-03-08T09:41:55;8.50;93.80
71837;DHT22;59686;51.716;7.016;2024-03-08T09:44:22;8.50;93.70
71837;DHT22;59686;51.716;7.016;2024-03-08T09:46:49;8.50;93.80
71837;DHT22;59686;51.716;7.016;2024-03-08T09:49:18;8.50;93.90
71837;DHT22;59686;51.716;7.016;2024-03-08T09:51:44;8.50;93.80
71837;DHT22;59686;51.716;7.016;2024-03-08T09:54:10;8.50;93.80
71837;DHT22;59686;51.716;7.016;2024-03-08T09:56:37;8.60;93.80
71837;DHT22;59686;51.716;7.016;2024-03-08T09:59:05;8.50;93.70
71837;DHT22;59686;51.716;7.016;2024-03-08T10:01:37;8.50;93.80
71837;DHT22;59686;51.716;7.016;2024-03-08T10:04:04;8.50;93.90
71837;DHT22;59686;51.716;7.016;2024-03-08T10:06:30;8.50;93.90
71837;DHT22;59686;51.716;7.016;2024-03-08T10:08:57;8.60;93.90
71837;DHT22;59686;51.716;7.016;2024-03-08T10:11:24;8.60;93.90
71837;DHT22;59686;51.716;7.016;2024-03-08T10:13:49;8.60;93.80
71837;DHT22;59686;51.716;7.016;2024-03-08T10:16:16;8.60;93.80
71837;DHT22;59686;51.716;7.016;2024-03-08T10:18:42;8.60;93.90
71837;DHT22;59686;51.716;7.016;2024-03-08T10:21:11;8.60;93.90
71837;DHT22;59686;51.716;7.016;2024-03-08T10:23:37;8.60;93.80
71837;DHT22;59686;51.716;7.016;2024-03-08T10:26:12;8.70;94.00
71837;DHT22;59686;51.716;7.016;2024-03-08T10:28:51;8.60;93.90
71837;DHT22;59686;51.716;7.016;2024-03-08T10:31:21;8.60;93.60
71837;DHT22;59686;51.716;7.016;2024-03-08T10:33:46;8.60;93.70
71837;DHT22;59686;51.716;7.016;2024-03-08T10:36:13;8.60;93.80
71837;DHT22;59686;51.716;7.016;2024-03-08T10:38:40;8.70;93.70
71837;DHT22;59686;51.716;7.016;2024-03-08T10:41:10;8.60;93.60
71837;DHT22;59686;51.716;7.016;2024-03-08T10:46:45;8.70;93.90
71837;DHT22;59686;51.716;7.016;2024-03-08T10:49:21;8.70;93.70
71837;DHT22;59686;51.716;7.016;2024-03-08T10:51:50;8.70;93.70
71837;DHT22;59686;51.716;7.016;2024-03-08T10:54:19;8.70;93.70
71837;DHT22;59686;51.716;7.016;2024-03-08T10:56:48;8.80;93.70
71837;DHT22;59686;51.716;7.016;2024-03-08T10:59:14;8.70;93.80
71837;DHT22;59686;51.716;7.016;2024-03-08T11:01:40;8.70;93.60
71837;DHT22;59686;51.716;7.016;2024-03-08T11:04:06;8.70;93.70
71837;DHT22;59686;51.716;7.016;2024-03-08T11:09:35;9.00;93.80
71837;DHT22;59686;51.716;7.016;2024-03-08T11:14:47;8.80;93.60
71837;DHT22;59686;51.716;7.016;2024-03-08T11:20:15;8.80;93.60
71837;DHT22;59686;51.716;7.016;2024-03-08T11:23:03;8.80;93.60
71837;DHT22;59686;51.716;7.016;2024-03-08T11:25:35;8.80;93.60
71837;DHT22;59686;51.716;7.016;2024-03-08T11:28:09;8.80;93.70
71837;DHT22;59686;51.716;7.016;2024-03-08T11:30:36;8.80;93.60
71837;DHT22;59686;51.716;7.016;2024-03-08T11:33:04;8.90;93.60
71837;DHT22;59686;51.716;7.016;2024-03-08T11:35:29;8.90;93.60
71837;DHT22;59686;51.716;7.016;2024-03-08T11:37:58;8.90;93.60
71837;DHT22;59686;51.716;7.016;2024-03-08T11:40:26;8.90;93.70
71837;DHT22;59686;51.716;7.016;2024-03-08T11:42:52;8.80;93.70
71837;DHT22;59686;51.716;7.016;2024-03-08T11:45:19;8.90;93.60
71837;DHT22;59686;51.716;7.016;2024-03-08T11:47:47;8.90;93.50
71837;DHT22;59686;51.716;7.016;2024-03-08T11:50:14;8.90;93.50
71837;DHT22;59686;51.716;7.016;2024-03-08T11:52:40;8.80;93.60
71837;DHT22;59686;51.716;7.016;2024-03-08T11:55:06;8.90;93.70
71837;DHT22;59686;51.716;7.016;2024-03-08T11:57:32;8.90;93.60
71837;DHT22;59686;51.716;7.016;2024-03-08T11:59:59;8.90;93.60
71837;DHT22;59686;51.716;7.016;2024-03-08T12:02:33;9.00;93.60
71837;DHT22;59686;51.716;7.016;2024-03-08T12:05:04;9.00;93.50
71837;DHT22;59686;51.716;7.016;2024-03-08T12:07:31;9.00;93.50
71837;DHT22;59686;51.716;7.016;2024-03-08T12:10:16;9.00;93.50
71837;DHT22;59686;51.716;7.016;2024-03-08T12:12:47;9.00;93.50
71837;DHT22;59686;51.716;7.016;2024-03-08T12:15:14;8.90;93.50
71837;DHT22;59686;51.716;7.016;2024-03-08T12:17:41;9.10;93.70
71837;DHT22;59686;51.716;7.016;2024-03-08T12:20:21;9.00;93.50
71837;DHT22;59686;51.716;7.016;2024-03-08T12:22:52;9.10;93.40
71837;DHT22;59686;51.716;7.016;2024-03-08T12:25:19;9.10;93.30
71837;DHT22;59686;51.716;7.016;2024-03-08T12:27:46;9.10;93.30
71837;DHT22;59686;51.716;7.016;2024-03-08T12:32:54;9.10;93.30
71837;DHT22;59686;51.716;7.016;2024-03-08T12:35:21;9.10;93.30
71837;DHT22;59686;51.716;7.016;2024-03-08T12:37:58;9.10;93.20
71837;DHT22;59686;51.716;7.016;2024-03-08T12:40:31;9.10;93.20
71837;DHT22;59686;51.716;7.016;2024-03-08T12:42:58;9.20;93.20
71837;DHT22;59686;51.716;7.016;2024-03-08T12:45:24;9.20;93.20
71837;DHT22;59686;51.716;7.016;2024-03-08T12:47:56;9.20;93.10
71837;DHT22;59686;51.716;7.016;2024-03-08T12:50:22;9.20;93.20
71837;DHT22;59686;51.716;7.016;2024-03-08T12:52:48;9.20;93.10
71837;DHT22;59686;51.716;7.016;2024-03-08T12:55:15;9.20;93.20
71837;DHT22;59686;51.716;7.016;2024-03-08T12:57:42;9.20;93.10
71837;DHT22;59686;51.716;7.016;2024-03-08T13:00:08;9.30;93.10
71837;DHT22;59686;51.716;7.016;2024-03-08T13:02:48;9.30;93.10
71837;DHT22;59686;51.716;7.016;2024-03-08T13:05:16;9.30;93.10
71837;DHT22;59686;51.716;7.016;2024-03-08T13:07:43;9.30;93.10
71837;DHT22;59686;51.716;7.016;2024-03-08T13:10:15;9.30;93.20
71837;DHT22;59686;51.716;7.016;2024-03-08T13:12:44;9.40;93.20
71837;DHT22;59686;51.716;7.016;2024-03-08T13:15:10;9.30;93.00
71837;DHT22;59686;51.716;7.016;2024-03-08T13:17:48;9.30;93.10
71837;DHT22;59686;51.716;7.016;2024-03-08T13:20:15;9.40;93.10
71837;DHT22;59686;51.716;7.016;2024-03-08T13:22:45;9.40;93.20
71837;DHT22;59686;51.716;7.016;2024-03-08T13:25:12;9.40;93.10
71837;DHT22;59686;51.716;7.016;2024-03-08T13:27:41;9.30;93.00
71837;DHT22;59686;51.716;7.016;2024-03-08T13:30:11;9.40;93.00
71837;DHT22;59686;51.716;7.016;2024-03-08T13:32:44;9.50;93.10
71837;DHT22;59686;51.716;7.016;2024-03-08T13:35:11;9.50;93.20
71837;DHT22;59686;51.716;7.016;2024-03-08T13:37:41;9.50;93.00
71837;DHT22;59686;51.716;7.016;2024-03-08T13:40:08;9.50;93.00
71837;DHT22;59686;51.716;7.016;2024-03-08T13:42:40;9.50;93.00
71837;DHT22;59686;51.716;7.016;2024-03-08T13:45:08;9.60;93.20
71837;DHT22;59686;51.716;7.016;2024-03-08T13:47:40;9.60;93.00
71837;DHT22;59686;51.716;7.016;2024-03-08T13:50:10;9.60;92.80
71837;DHT22;59686;51.716;7.016;2024-03-08T13:52:49;9.60;92.80
71837;DHT22;59686;51.716;7.016;2024-03-08T13:55:19;9.60;92.90
71837;DHT22;59686;51.716;7.016;2024-03-08T13:57:45;9.70;92.80
71837;DHT22;59686;51.716;7.016;2024-03-08T14:00:13;9.60;92.70
71837;DHT22;59686;51.716;7.016;2024-03-08T14:02:39;9.60;92.60
71837;DHT22;59686;51.716;7.016;2024-03-08T14:05:06;9.60;92.50
71837;DHT22;59686;51.716;7.016;2024-03-08T14:07:34;9.60;92.50
71837;DHT22;59686;51.716;7.016;2024-03-08T14:10:00;9.70;92.60
71837;DHT22;59686;51.716;7.016;2024-03-08T14:12:26;9.70;92.60
71837;DHT22;59686;51.716;7.016;2024-03-08T14:14:52;9.70;92.60
71837;DHT22;59686;51.716;7.016;2024-03-08T14:17:18;9.60;92.60
71837;DHT22;59686;51.716;7.016;2024-03-08T14:19:44;9.70;92.60
71837;DHT22;59686;51.716;7.016;2024-03-08T14:22:10;9.70;92.60
71837;DHT22;59686;51.716;7.016;2024-03-08T14:24:43;9.80;92.80
71837;DHT22;59686;51.716;7.016;2024-03-08T14:27:10;9.90;92.70
71837;DHT22;59686;51.716;7.016;2024-03-08T14:29:38;9.80;92.80
71837;DHT22;59686;51.716;7.016;2024-03-08T14:32:05;9.80;92.70
71837;DHT22;59686;51.716;7.016;2024-03-08T14:34:32;9.80;92.60
71837;DHT22;59686;51.716;7.016;2024-03-08T14:36:59;9.90;92.60
71837;DHT22;59686;51.716;7.016;2024-03-08T14:39:26;9.90;92.50
71837;DHT22;59686;51.716;7.016;2024-03-08T14:41:55;9.90;92.50
71837;DHT22;59686;51.716;7.016;2024-03-08T14:44:21;9.90;92.40
71837;DHT22;59686;51.716;7.016;2024-03-08T14:46:57;9.90;92.50
71837;DHT22;59686;51.716;7.016;2024-03-08T14:49:24;9.90;92.40
71837;DHT22;59686;51.716;7.016;2024-03-08T14:51:51;9.90;92.50
71837;DHT22;59686;51.716;7.016;2024-03-08T14:54:17;9.90;92.50
71837;DHT22;59686;51.716;7.016;2024-03-08T14:56:48;10.00;92.40
71837;DHT22;59686;51.716;7.016;2024-03-08T14:59:16;10.00;92.30
71837;DHT22;59686;51.716;7.016;2024-03-08T15:01:42;10.00;92.40
71837;DHT22;59686;51.716;7.016;2024-03-08T15:04:09;10.00;92.40
71837;DHT22;59686;51.716;7.016;2024-03-08T15:06:39;10.10;92.50
71837;DHT22;59686;51.716;7.016;2024-03-08T15:09:05;10.10;92.30
71837;DHT22;59686;51.716;7.016;2024-03-08T15:11:51;10.10;92.30
71837;DHT22;59686;51.716;7.016;2024-03-08T15:14:17;10.10;92.30
71837;DHT22;59686;51.716;7.016;2024-03-08T15:16:45;10.10;92.40
71837;DHT22;59686;51.716;7.016;2024-03-08T15:19:12;10.10;92.40
71837;DHT22;59686;51.716;7.016;2024-03-08T15:21:40;10.10;92.50
71837;DHT22;59686;51.716;7.016;2024-03-08T15:24:06;10.10;92.20
71837;DHT22;59686;51.716;7.016;2024-03-08T15:26:35;10.10;92.30
71837;DHT22;59686;51.716;7.016;2024-03-08T15:29:01;10.10;92.20
71837;DHT22;59686;51.716;7.016;2024-03-08T15:31:27;10.20;92.20
71837;DHT22;59686;51.716;7.016;2024-03-08T15:33:53;10.20;92.30
71837;DHT22;59686;51.716;7.016;2024-03-08T15:36:26;10.20;92.30
71837;DHT22;59686;51.716;7.016;2024-03-08T15:38:59;10.20;92.10
71837;DHT22;59686;51.716;7.016;2024-03-08T15:41:25;10.20;92.30
71837;DHT22;59686;51.716;7.016;2024-03-08T15:43:52;10.20;92.10
71837;DHT22;59686;51.716;7.016;2024-03-08T15:46:18;10.20;92.30
71837;DHT22;59686;51.716;7.016;2024-03-08T15:48:48;10.30;92.20
71837;DHT22;59686;51.716;7.016;2024-03-08T15:51:14;10.30;92.20
71837;DHT22;59686;51.716;7.016;2024-03-08T15:53:43;10.20;92.20
71837;DHT22;59686;51.716;7.016;2024-03-08T15:56:10;10.30;92.20
71837;DHT22;59686;51.716;7.016;2024-03-08T15:58:37;10.30;92.10
71837;DHT22;59686;51.716;7.016;2024-03-08T16:01:04;10.30;92.20